Terminal Aerodrome Forecast
Issued by NWS

Home | Current Version | Previous Version | Text Only | Print | Product List | Glossary On
Versions: 1 2 3 4 5 6 7 8 9 10 11 12 13
000
FTUS45 KTFX 011700
TAFHVR
TAF
KHVR 011735Z 0118/0218 29010KT P6SM SCT120
     FM021200 33015G20KT P6SM VCSH SCT035 BKN050
      TEMPO 0212/0216 34015G25KT 4SM -SHRASN BR BKN020=

USA.gov is the U.S. government's official web portal to all federal, state and local government web resources and services.